Time;durP1;ratioP1;P1;durP2;ratioP2;P2;SDS_P1;SDS_P2;PMS_P1;PMS_P2;Temp;Humidity;BMP_temperature;BMP_pressure;BME280_temperature;BME280_humidity;BME280_pressure;Samples;Min_cycle;Max_cycle;Signal;HPM_P1;HPM_P2
2023/08/04 00:02:07;;;;;;;11.30;5.27;;;;;;;;;;5044218;28;20461;-77
2023/08/04 00:04:34;;;;;;;11.77;5.70;;;;;;;;;;5038324;28;20533;-77
2023/08/04 00:07:00;;;;;;;11.80;6.27;;;;;;;;;;5044991;28;20840;-77
2023/08/04 00:09:28;;;;;;;7.93;5.40;;;;;;;;;;5044994;28;20524;-77
2023/08/04 00:11:54;;;;;;;10.10;5.63;;;;;;;;;;5043015;28;20884;-76
2023/08/04 00:14:20;;;;;;;6.80;6.20;;;;;;;;;;5038375;28;20505;-77
2023/08/04 00:16:47;;;;;;;10.50;6.33;;;;;;;;;;5043844;28;20544;-77
2023/08/04 00:19:13;;;;;;;10.43;5.63;;;;;;;;;;5035297;28;20905;-77
2023/08/04 00:21:39;;;;;;;8.97;5.80;;;;;;;;;;5040553;28;20465;-77
2023/08/04 00:24:06;;;;;;;13.67;5.50;;;;;;;;;;5041243;28;20485;-76
2023/08/04 00:26:34;;;;;;;13.30;5.90;;;;;;;;;;5042770;28;20544;-78
2023/08/04 00:29:00;;;;;;;11.10;6.63;;;;;;;;;;5042124;28;20456;-75
2023/08/04 00:31:26;;;;;;;9.60;5.50;;;;;;;;;;5043033;28;20533;-76
2023/08/04 00:33:55;;;;;;;12.53;5.83;;;;;;;;;;5042789;28;20505;-76
2023/08/04 00:36:21;;;;;;;10.93;6.20;;;;;;;;;;5043370;28;20959;-76
2023/08/04 00:38:47;;;;;;;10.47;5.80;;;;;;;;;;5043588;28;20513;-76
2023/08/04 00:41:14;;;;;;;11.03;6.33;;;;;;;;;;5042813;28;20450;-75
2023/08/04 00:43:41;;;;;;;10.30;6.00;;;;;;;;;;5040114;28;20469;-76
2023/08/04 00:46:08;;;;;;;9.97;6.13;;;;;;;;;;5039683;28;20482;-76
2023/08/04 00:48:35;;;;;;;10.53;5.83;;;;;;;;;;5043101;28;20467;-75
2023/08/04 00:51:02;;;;;;;9.87;5.37;;;;;;;;;;5032042;28;20465;-75
2023/08/04 00:53:28;;;;;;;13.87;6.23;;;;;;;;;;5043116;28;20577;-76
2023/08/04 00:55:55;;;;;;;9.13;6.10;;;;;;;;;;5037871;28;20464;-76
2023/08/04 00:58:21;;;;;;;14.73;6.37;;;;;;;;;;5036258;28;20492;-76
2023/08/04 01:00:49;;;;;;;12.77;6.47;;;;;;;;;;5043439;28;20453;-75
2023/08/04 01:03:16;;;;;;;8.70;6.20;;;;;;;;;;5043333;28;20473;-76
2023/08/04 01:05:46;;;;;;;8.80;6.00;;;;;;;;;;5043334;28;21327;-75
2023/08/04 01:08:15;;;;;;;9.73;7.53;;;;;;;;;;5040578;28;20545;-76
2023/08/04 01:10:44;;;;;;;11.63;7.13;;;;;;;;;;5040890;28;20458;-77
2023/08/04 01:13:13;;;;;;;9.17;7.00;;;;;;;;;;5039971;28;20639;-77
2023/08/04 01:15:41;;;;;;;11.37;6.80;;;;;;;;;;5037770;28;20481;-76
2023/08/04 01:18:08;;;;;;;8.73;6.80;;;;;;;;;;5041656;28;20460;-77
2023/08/04 01:20:35;;;;;;;21.40;6.63;;;;;;;;;;5042905;28;20903;-77
2023/08/04 01:23:02;;;;;;;7.77;6.00;;;;;;;;;;5043109;28;20517;-77
2023/08/04 01:25:30;;;;;;;8.87;5.40;;;;;;;;;;5042232;28;21000;-76
2023/08/04 01:27:58;;;;;;;9.70;6.30;;;;;;;;;;5042656;28;20496;-77
2023/08/04 01:30:26;;;;;;;8.90;6.53;;;;;;;;;;5033755;28;20529;-77
2023/08/04 01:32:52;;;;;;;6.67;5.80;;;;;;;;;;5043290;28;20480;-77
2023/08/04 01:35:19;;;;;;;12.97;6.50;;;;;;;;;;5032215;28;20518;-77
2023/08/04 01:37:45;;;;;;;7.87;6.27;;;;;;;;;;5042830;28;20970;-77
2023/08/04 01:40:13;;;;;;;10.80;5.60;;;;;;;;;;5042017;28;20453;-77
2023/08/04 01:42:40;;;;;;;9.47;5.50;;;;;;;;;;5042461;28;20515;-77
2023/08/04 01:45:07;;;;;;;9.07;4.90;;;;;;;;;;5042040;28;20536;-77
2023/08/04 01:47:33;;;;;;;9.03;6.00;;;;;;;;;;5043164;28;21282;-76
2023/08/04 01:49:59;;;;;;;13.33;5.60;;;;;;;;;;5042963;28;20953;-77
2023/08/04 01:52:26;;;;;;;12.90;5.33;;;;;;;;;;5042495;28;20489;-76
2023/08/04 01:54:52;;;;;;;8.63;5.60;;;;;;;;;;5042491;28;20529;-78
2023/08/04 01:57:20;;;;;;;12.97;5.57;;;;;;;;;;5042790;28;20449;-77
2023/08/04 01:59:46;;;;;;;12.97;6.57;;;;;;;;;;5042240;28;20497;-77
2023/08/04 02:02:13;;;;;;;9.17;5.40;;;;;;;;;;5042643;28;20882;-77
2023/08/04 02:04:39;;;;;;;10.60;6.53;;;;;;;;;;5042262;28;20521;-77
2023/08/04 02:07:05;;;;;;;7.53;5.97;;;;;;;;;;5042506;28;20561;-77
2023/08/04 02:09:33;;;;;;;8.13;5.93;;;;;;;;;;5042485;28;21041;-77
2023/08/04 02:11:59;;;;;;;8.87;6.20;;;;;;;;;;5040056;28;20462;-77
2023/08/04 02:14:28;;;;;;;11.23;6.73;;;;;;;;;;5042282;28;20485;-77
2023/08/04 02:16:54;;;;;;;9.63;7.00;;;;;;;;;;5040184;28;20449;-76
2023/08/04 02:19:22;;;;;;;9.33;6.80;;;;;;;;;;5042663;28;20464;-77
2023/08/04 02:21:48;;;;;;;10.07;6.73;;;;;;;;;;5041127;28;20516;-76
2023/08/04 02:24:15;;;;;;;9.80;6.93;;;;;;;;;;5041763;28;20450;-76
2023/08/04 02:26:44;;;;;;;10.07;7.37;;;;;;;;;;5039778;28;20556;-77
2023/08/04 02:29:10;;;;;;;9.93;6.97;;;;;;;;;;5037911;28;20473;-77
2023/08/04 02:31:38;;;;;;;12.20;6.40;;;;;;;;;;5041721;28;20493;-77
2023/08/04 02:34:04;;;;;;;9.77;6.77;;;;;;;;;;5041783;28;20508;-77
2023/08/04 02:36:31;;;;;;;8.87;6.90;;;;;;;;;;5041920;28;20525;-77
2023/08/04 02:38:57;;;;;;;10.30;7.40;;;;;;;;;;5042117;28;20456;-77
2023/08/04 02:41:23;;;;;;;10.03;6.87;;;;;;;;;;5041536;28;20450;-76
2023/08/04 02:43:50;;;;;;;15.63;7.67;;;;;;;;;;5041456;28;20517;-76
2023/08/04 02:46:16;;;;;;;11.03;7.47;;;;;;;;;;5041570;28;20449;-77
2023/08/04 02:48:44;;;;;;;12.90;7.77;;;;;;;;;;5041651;28;20461;-77
2023/08/04 02:51:12;;;;;;;10.93;8.60;;;;;;;;;;5041069;28;20529;-77
2023/08/04 02:53:40;;;;;;;8.30;6.80;;;;;;;;;;5041751;28;20493;-77
2023/08/04 02:56:10;;;;;;;12.40;7.20;;;;;;;;;;5037282;28;20476;-77
2023/08/04 02:58:36;;;;;;;12.10;8.70;;;;;;;;;;5041144;28;20458;-76
2023/08/04 03:01:03;;;;;;;15.00;8.33;;;;;;;;;;5041462;28;20453;-76
2023/08/04 03:03:29;;;;;;;13.57;7.70;;;;;;;;;;5038174;28;20465;-75
2023/08/04 03:05:58;;;;;;;13.73;8.13;;;;;;;;;;5039510;28;20496;-78
2023/08/04 03:08:24;;;;;;;10.93;8.07;;;;;;;;;;5041199;28;20985;-78
2023/08/04 03:10:51;;;;;;;10.53;7.37;;;;;;;;;;5041227;28;20460;-78
2023/08/04 03:13:17;;;;;;;10.67;7.07;;;;;;;;;;5040762;28;20513;-78
2023/08/04 03:15:43;;;;;;;12.00;7.80;;;;;;;;;;5037940;28;20521;-78
2023/08/04 03:18:10;;;;;;;16.13;7.83;;;;;;;;;;5041607;28;20489;-78
2023/08/04 03:20:37;;;;;;;11.53;6.90;;;;;;;;;;5041177;28;20485;-78
2023/08/04 03:23:05;;;;;;;9.93;7.83;;;;;;;;;;5040566;28;20468;-78
2023/08/04 03:25:32;;;;;;;11.50;7.97;;;;;;;;;;5036443;28;20469;-80
2023/08/04 03:27:58;;;;;;;12.43;7.93;;;;;;;;;;5035264;28;20497;-78
2023/08/04 03:30:25;;;;;;;11.13;8.03;;;;;;;;;;5040609;28;20533;-78
2023/08/04 03:32:51;;;;;;;14.47;8.67;;;;;;;;;;5036981;28;21031;-78
2023/08/04 03:35:18;;;;;;;13.93;8.53;;;;;;;;;;5040752;28;20494;-78
2023/08/04 03:37:44;;;;;;;12.93;8.00;;;;;;;;;;5041374;28;20477;-78
2023/08/04 03:40:14;;;;;;;17.27;8.23;;;;;;;;;;5028822;28;20525;-78
2023/08/04 03:42:41;;;;;;;11.70;7.97;;;;;;;;;;5040869;28;20462;-78
2023/08/04 03:45:08;;;;;;;14.50;8.43;;;;;;;;;;5040070;28;20534;-78
2023/08/04 03:47:34;;;;;;;14.90;7.57;;;;;;;;;;5039070;28;20541;-78
2023/08/04 03:50:01;;;;;;;12.40;8.40;;;;;;;;;;5037291;28;21019;-77
2023/08/04 03:52:27;;;;;;;10.53;9.20;;;;;;;;;;5040594;28;20504;-77
2023/08/04 03:54:54;;;;;;;10.43;8.13;;;;;;;;;;5032897;28;20505;-74
2023/08/04 03:57:21;;;;;;;13.73;8.83;;;;;;;;;;5034329;28;20526;-78
2023/08/04 03:59:48;;;;;;;12.90;7.77;;;;;;;;;;5036608;28;20533;-78
2023/08/04 04:02:14;;;;;;;13.43;8.70;;;;;;;;;;5040338;28;20457;-77
2023/08/04 04:04:41;;;;;;;12.00;7.70;;;;;;;;;;5040662;28;20553;-77
2023/08/04 04:07:07;;;;;;;10.90;7.67;;;;;;;;;;5040484;28;20464;-78
2023/08/04 04:09:34;;;;;;;14.90;8.17;;;;;;;;;;5039709;28;20454;-78
2023/08/04 04:12:00;;;;;;;11.67;8.23;;;;;;;;;;5038010;28;20492;-78
2023/08/04 04:14:28;;;;;;;9.10;8.20;;;;;;;;;;5039931;28;20520;-78
2023/08/04 04:16:54;;;;;;;13.63;8.30;;;;;;;;;;5040431;28;20473;-78
2023/08/04 04:19:20;;;;;;;13.13;8.40;;;;;;;;;;5039833;28;20454;-78
2023/08/04 04:21:47;;;;;;;13.93;8.40;;;;;;;;;;5039961;28;20526;-78
2023/08/04 04:24:13;;;;;;;16.00;7.80;;;;;;;;;;5040231;28;20457;-79
2023/08/04 04:26:39;;;;;;;11.80;8.87;;;;;;;;;;5039616;28;20481;-79
2023/08/04 04:29:06;;;;;;;12.60;9.03;;;;;;;;;;5033732;28;20521;-79
2023/08/04 04:31:34;;;;;;;11.57;9.00;;;;;;;;;;5032862;28;20519;-78
2023/08/04 04:34:00;;;;;;;15.00;8.77;;;;;;;;;;5031850;28;20486;-77
2023/08/04 04:36:26;;;;;;;14.17;9.90;;;;;;;;;;5043332;28;20516;-77
2023/08/04 04:38:53;;;;;;;13.03;8.20;;;;;;;;;;5043569;28;20492;-77
2023/08/04 04:41:19;;;;;;;16.07;9.17;;;;;;;;;;5042485;28;20480;-77
2023/08/04 04:43:45;;;;;;;9.70;8.90;;;;;;;;;;5043544;28;20727;-78
2023/08/04 04:46:12;;;;;;;12.83;9.40;;;;;;;;;;5042676;28;20540;-78
2023/08/04 04:48:41;;;;;;;12.60;10.27;;;;;;;;;;5043386;28;20854;-78
2023/08/04 04:51:08;;;;;;;14.20;9.03;;;;;;;;;;5037973;28;20461;-78
2023/08/04 04:53:34;;;;;;;12.93;10.67;;;;;;;;;;5037530;28;20458;-78
2023/08/04 04:56:00;;;;;;;15.20;9.90;;;;;;;;;;5036982;28;20485;-78
2023/08/04 04:58:27;;;;;;;22.90;9.40;;;;;;;;;;5043065;28;20517;-76
2023/08/04 05:00:54;;;;;;;13.33;9.30;;;;;;;;;;5043106;28;20492;-78
2023/08/04 05:03:20;;;;;;;15.53;10.00;;;;;;;;;;5042330;28;20549;-78
2023/08/04 05:05:48;;;;;;;19.67;9.70;;;;;;;;;;5042861;28;20997;-78
2023/08/04 05:08:14;;;;;;;10.13;8.83;;;;;;;;;;5040125;28;20574;-78
2023/08/04 05:10:41;;;;;;;14.37;8.93;;;;;;;;;;5042557;28;20449;-78
2023/08/04 05:13:07;;;;;;;10.33;7.70;;;;;;;;;;5036114;28;20496;-78
2023/08/04 05:15:33;;;;;;;9.90;7.47;;;;;;;;;;5039097;28;20493;-78
2023/08/04 05:18:00;;;;;;;10.97;7.20;;;;;;;;;;5030776;28;20922;-79
2023/08/04 05:20:26;;;;;;;16.23;7.27;;;;;;;;;;5037025;28;20494;-78
2023/08/04 05:22:54;;;;;;;9.67;7.03;;;;;;;;;;5037587;28;20536;-79
2023/08/04 05:25:20;;;;;;;7.63;6.87;;;;;;;;;;5044570;28;20548;-78
2023/08/04 05:27:49;;;;;;;10.90;7.00;;;;;;;;;;5040404;28;20457;-78
2023/08/04 05:30:16;;;;;;;14.37;7.40;;;;;;;;;;5036870;28;20526;-78
2023/08/04 05:32:42;;;;;;;12.40;7.13;;;;;;;;;;5046126;28;20454;-77
2023/08/04 05:35:10;;;;;;;11.20;7.30;;;;;;;;;;5044856;28;20477;-78
2023/08/04 05:37:36;;;;;;;14.07;8.00;;;;;;;;;;5042010;28;20468;-79
2023/08/04 05:40:05;;;;;;;15.67;7.73;;;;;;;;;;5042198;28;20468;-80
2023/08/04 05:42:31;;;;;;;10.43;7.00;;;;;;;;;;5042509;28;20457;-79
2023/08/04 05:44:57;;;;;;;10.07;6.87;;;;;;;;;;5040924;28;20501;-78
2023/08/04 05:47:25;;;;;;;12.17;6.47;;;;;;;;;;5042336;28;20533;-79
2023/08/04 05:49:52;;;;;;;9.63;7.10;;;;;;;;;;5041339;28;20950;-78
2023/08/04 05:52:18;;;;;;;13.40;6.40;;;;;;;;;;5043055;28;20524;-78
2023/08/04 05:54:44;;;;;;;14.47;6.27;;;;;;;;;;5042425;28;20525;-78
2023/08/04 05:57:12;;;;;;;14.90;8.20;;;;;;;;;;5039835;28;20996;-79
2023/08/04 05:59:39;;;;;;;11.17;6.40;;;;;;;;;;5034786;28;20526;-76
2023/08/04 06:02:05;;;;;;;11.60;5.80;;;;;;;;;;5035019;28;20902;-76
2023/08/04 06:04:32;;;;;;;13.10;6.70;;;;;;;;;;5041564;28;20480;-76
2023/08/04 06:06:58;;;;;;;11.83;6.07;;;;;;;;;;5040608;28;20497;-76
2023/08/04 06:09:24;;;;;;;9.43;5.37;;;;;;;;;;5040955;28;20480;-76
2023/08/04 06:11:51;;;;;;;8.63;5.10;;;;;;;;;;5040523;28;20461;-77
2023/08/04 06:14:18;;;;;;;11.00;5.90;;;;;;;;;;5032094;28;20545;-78
2023/08/04 06:16:45;;;;;;;9.70;5.53;;;;;;;;;;5042709;28;20457;-78
2023/08/04 06:19:11;;;;;;;8.80;5.90;;;;;;;;;;5037223;28;20513;-78
2023/08/04 06:21:38;;;;;;;6.20;5.00;;;;;;;;;;5041414;28;20549;-78
2023/08/04 06:24:04;;;;;;;12.87;5.80;;;;;;;;;;5036633;28;21400;-78
2023/08/04 06:26:31;;;;;;;11.90;5.27;;;;;;;;;;5038832;28;20446;-79
2023/08/04 06:28:57;;;;;;;6.43;5.73;;;;;;;;;;5040335;28;20489;-79
2023/08/04 06:31:25;;;;;;;8.90;5.40;;;;;;;;;;5045704;28;20454;-78
2023/08/04 06:33:51;;;;;;;11.03;5.53;;;;;;;;;;5041301;28;20466;-77
2023/08/04 06:36:18;;;;;;;8.83;5.50;;;;;;;;;;5040373;28;20540;-77
2023/08/04 06:38:44;;;;;;;9.47;5.40;;;;;;;;;;5040816;28;20461;-77
2023/08/04 06:41:10;;;;;;;11.27;5.80;;;;;;;;;;5040832;28;20453;-77
2023/08/04 06:43:37;;;;;;;7.33;5.50;;;;;;;;;;5041236;28;20493;-76
2023/08/04 06:46:04;;;;;;;9.83;5.57;;;;;;;;;;5040780;28;20496;-77
2023/08/04 06:48:31;;;;;;;8.83;5.70;;;;;;;;;;5039154;28;20507;-79
2023/08/04 06:50:58;;;;;;;12.43;5.00;;;;;;;;;;5046331;28;20493;-78
2023/08/04 06:53:24;;;;;;;7.07;5.00;;;;;;;;;;5046595;28;20496;-80
2023/08/04 06:55:51;;;;;;;5.50;4.37;;;;;;;;;;5041574;28;20911;-79
2023/08/04 06:58:17;;;;;;;6.93;4.30;;;;;;;;;;5038042;28;20514;-79
2023/08/04 07:00:45;;;;;;;8.43;4.20;;;;;;;;;;5033291;28;20456;-79
2023/08/04 07:03:12;;;;;;;9.47;4.47;;;;;;;;;;5048945;28;20464;-79
2023/08/04 07:05:40;;;;;;;7.83;5.20;;;;;;;;;;5032542;28;20482;-79
2023/08/04 07:08:07;;;;;;;7.10;3.83;;;;;;;;;;5038814;28;20507;-78
2023/08/04 07:10:34;;;;;;;6.60;3.97;;;;;;;;;;5039271;28;20469;-78
2023/08/04 07:13:00;;;;;;;10.87;4.23;;;;;;;;;;5031513;28;20500;-78
2023/08/04 07:15:27;;;;;;;13.87;4.90;;;;;;;;;;5045844;28;20494;-78
2023/08/04 07:17:53;;;;;;;9.80;4.03;;;;;;;;;;5036434;28;20442;-78
2023/08/04 07:20:21;;;;;;;7.00;4.47;;;;;;;;;;5041485;28;20557;-79
2023/08/04 07:22:49;;;;;;;8.57;4.27;;;;;;;;;;5040306;28;20470;-73
2023/08/04 07:25:16;;;;;;;12.60;5.13;;;;;;;;;;5041183;28;20469;-78
2023/08/04 07:27:43;;;;;;;9.33;4.57;;;;;;;;;;5039713;28;20475;-77
2023/08/04 07:30:10;;;;;;;8.13;3.90;;;;;;;;;;5040329;28;20465;-77
2023/08/04 07:32:36;;;;;;;6.30;4.07;;;;;;;;;;5041649;28;20722;-77
2023/08/04 07:35:03;;;;;;;6.90;4.30;;;;;;;;;;5040788;28;20466;-77
2023/08/04 07:37:29;;;;;;;5.17;3.53;;;;;;;;;;5023958;28;20522;-74
2023/08/04 07:39:57;;;;;;;4.87;3.37;;;;;;;;;;5035065;28;20458;-78
2023/08/04 07:42:24;;;;;;;7.90;3.60;;;;;;;;;;5040827;28;20536;-78
2023/08/04 07:44:50;;;;;;;8.87;3.40;;;;;;;;;;5040488;28;20469;-78
2023/08/04 07:47:17;;;;;;;9.20;3.47;;;;;;;;;;5040128;28;20489;-78
2023/08/04 07:49:43;;;;;;;4.13;2.57;;;;;;;;;;5040913;28;20517;-78
2023/08/04 07:52:09;;;;;;;5.37;2.47;;;;;;;;;;5045121;28;20540;-79
2023/08/04 07:54:37;;;;;;;5.73;2.53;;;;;;;;;;5040048;28;20462;-79
2023/08/04 07:57:05;;;;;;;5.07;2.50;;;;;;;;;;5041836;28;20481;-78
2023/08/04 07:59:31;;;;;;;6.53;2.70;;;;;;;;;;5040462;28;20442;-80
2023/08/04 08:01:58;;;;;;;5.80;2.37;;;;;;;;;;5039872;28;20465;-77
2023/08/04 08:04:24;;;;;;;6.60;2.17;;;;;;;;;;5049140;28;20526;-78
2023/08/04 08:06:51;;;;;;;5.37;2.13;;;;;;;;;;5040774;28;20964;-78
2023/08/04 08:09:17;;;;;;;5.73;2.67;;;;;;;;;;5039093;28;20453;-79
2023/08/04 08:11:43;;;;;;;5.13;2.30;;;;;;;;;;5044138;28;20465;-78
2023/08/04 08:14:11;;;;;;;4.63;2.23;;;;;;;;;;5044392;28;20568;-79
2023/08/04 08:16:38;;;;;;;6.70;2.70;;;;;;;;;;5044550;28;20486;-78
2023/08/04 08:19:04;;;;;;;7.77;2.67;;;;;;;;;;5044602;28;20450;-78
2023/08/04 08:21:32;;;;;;;3.30;2.17;;;;;;;;;;5045519;28;20473;-78
2023/08/04 08:23:58;;;;;;;8.77;3.00;;;;;;;;;;5048287;28;20450;-78
2023/08/04 08:26:25;;;;;;;5.33;3.20;;;;;;;;;;5044188;28;20970;-78
2023/08/04 08:28:51;;;;;;;6.60;2.63;;;;;;;;;;5047095;28;20488;-78
2023/08/04 08:31:19;;;;;;;5.27;2.77;;;;;;;;;;5042960;28;20533;-78
2023/08/04 08:33:46;;;;;;;7.27;2.77;;;;;;;;;;5044084;28;20453;-78
2023/08/04 08:36:12;;;;;;;3.03;1.90;;;;;;;;;;5044051;28;20500;-78
2023/08/04 08:38:39;;;;;;;5.37;1.90;;;;;;;;;;5043688;28;20485;-76
2023/08/04 08:41:07;;;;;;;5.13;2.20;;;;;;;;;;5043839;28;20453;-79
2023/08/04 08:43:34;;;;;;;2.47;1.90;;;;;;;;;;5043370;28;20472;-78
2023/08/04 08:46:00;;;;;;;4.57;1.90;;;;;;;;;;5042836;28;20450;-78
2023/08/04 08:48:30;;;;;;;4.27;1.83;;;;;;;;;;5043335;28;20457;-78
2023/08/04 08:50:59;;;;;;;7.27;2.10;;;;;;;;;;5042862;28;20449;-78
2023/08/04 08:53:26;;;;;;;3.67;1.73;;;;;;;;;;5042845;28;20453;-78
2023/08/04 08:55:52;;;;;;;3.30;1.70;;;;;;;;;;5029798;28;20485;-78
2023/08/04 08:58:19;;;;;;;5.83;2.00;;;;;;;;;;5046540;28;20473;-78
2023/08/04 09:00:46;;;;;;;6.57;2.00;;;;;;;;;;5042328;28;20553;-78
2023/08/04 09:03:12;;;;;;;5.97;1.90;;;;;;;;;;5042385;28;21052;-78
2023/08/04 09:05:40;;;;;;;3.97;1.80;;;;;;;;;;5044318;28;20469;-79
2023/08/04 09:08:07;;;;;;;3.00;1.70;;;;;;;;;;5041725;28;20459;-78
2023/08/04 09:10:36;;;;;;;4.80;1.93;;;;;;;;;;5047505;28;21002;-78
2023/08/04 09:13:03;;;;;;;3.40;1.87;;;;;;;;;;5042305;28;20489;-78
2023/08/04 09:15:33;;;;;;;4.43;1.90;;;;;;;;;;5041564;28;20596;-78
2023/08/04 09:18:00;;;;;;;5.10;2.00;;;;;;;;;;5043456;28;20512;-78
2023/08/04 09:20:29;;;;;;;2.70;1.60;;;;;;;;;;5038115;28;20446;-78
2023/08/04 09:22:57;;;;;;;2.17;1.33;;;;;;;;;;5042831;28;20462;-78
2023/08/04 09:25:23;;;;;;;3.03;1.70;;;;;;;;;;5043338;28;20526;-78
2023/08/04 09:27:50;;;;;;;3.90;1.80;;;;;;;;;;5042674;28;20488;-79
2023/08/04 09:30:17;;;;;;;3.73;1.90;;;;;;;;;;5044096;28;20564;-78
2023/08/04 09:32:45;;;;;;;2.83;1.53;;;;;;;;;;5037572;28;20524;-78
2023/08/04 09:35:11;;;;;;;5.17;1.70;;;;;;;;;;5040112;28;20983;-79
2023/08/04 09:37:38;;;;;;;2.73;1.60;;;;;;;;;;5042230;28;20461;-78
2023/08/04 09:40:13;;;;;;;5.33;1.83;;;;;;;;;;5042981;28;20464;-78
2023/08/04 09:42:40;;;;;;;3.43;1.73;;;;;;;;;;5039360;28;20560;-78
2023/08/04 09:45:08;;;;;;;2.83;1.83;;;;;;;;;;5041723;28;20521;-78
2023/08/04 09:47:34;;;;;;;2.87;1.40;;;;;;;;;;5049038;28;21213;-78
2023/08/04 09:50:01;;;;;;;2.93;1.60;;;;;;;;;;5042766;28;20485;-78
2023/08/04 09:52:30;;;;;;;4.70;1.53;;;;;;;;;;5041496;28;20473;-78
2023/08/04 09:54:57;;;;;;;3.10;1.50;;;;;;;;;;5041893;28;20485;-77
2023/08/04 09:57:26;;;;;;;7.20;1.60;;;;;;;;;;5042175;28;20572;-78
2023/08/04 09:59:53;;;;;;;4.37;1.67;;;;;;;;;;5041656;28;20488;-78
2023/08/04 10:02:20;;;;;;;5.53;1.83;;;;;;;;;;5042060;28;20481;-78
2023/08/04 10:04:48;;;;;;;4.47;1.50;;;;;;;;;;5042102;28;20452;-77
2023/08/04 10:07:15;;;;;;;2.70;1.40;;;;;;;;;;5047776;28;20468;-78
2023/08/04 10:09:41;;;;;;;7.47;1.90;;;;;;;;;;5042016;28;20814;-78
2023/08/04 10:12:08;;;;;;;6.03;1.40;;;;;;;;;;5048154;28;20496;-78
2023/08/04 10:14:36;;;;;;;6.07;1.70;;;;;;;;;;5041123;28;20464;-78
2023/08/04 10:17:03;;;;;;;5.90;2.00;;;;;;;;;;5040913;28;20896;-78
2023/08/04 10:19:29;;;;;;;2.40;1.60;;;;;;;;;;5043346;28;20449;-77
2023/08/04 10:22:03;;;;;;;5.30;1.50;;;;;;;;;;5041070;28;20493;-78
2023/08/04 10:24:29;;;;;;;3.93;2.00;;;;;;;;;;5041553;28;20496;-79
2023/08/04 10:26:55;;;;;;;4.23;1.73;;;;;;;;;;5040751;28;20514;-79
2023/08/04 10:29:31;;;;;;;3.40;1.47;;;;;;;;;;5041312;28;20517;-79
2023/08/04 10:32:01;;;;;;;2.50;1.47;;;;;;;;;;5041610;28;20453;-77
2023/08/04 10:34:29;;;;;;;2.93;1.30;;;;;;;;;;5040977;28;20485;-80
2023/08/04 10:36:58;;;;;;;2.50;1.30;;;;;;;;;;5039410;28;21024;-77
2023/08/04 10:39:28;;;;;;;2.60;1.30;;;;;;;;;;5037659;28;20531;-78
2023/08/04 10:41:55;;;;;;;2.60;1.40;;;;;;;;;;5041136;28;20458;-78
2023/08/04 10:44:24;;;;;;;2.40;1.50;;;;;;;;;;5046772;28;20446;-77
2023/08/04 10:46:51;;;;;;;2.50;1.50;;;;;;;;;;5040656;28;20500;-78
2023/08/04 10:49:19;;;;;;;1.70;1.27;;;;;;;;;;5044101;28;20456;-77
2023/08/04 10:51:46;;;;;;;3.00;1.80;;;;;;;;;;5040033;28;20540;-77
2023/08/04 10:54:12;;;;;;;2.60;1.50;;;;;;;;;;5040783;28;20454;-78
2023/08/04 10:56:39;;;;;;;2.23;1.40;;;;;;;;;;5040732;28;20473;-77
2023/08/04 10:59:07;;;;;;;1.80;1.53;;;;;;;;;;5038945;28;20464;-78
2023/08/04 11:01:34;;;;;;;3.13;1.70;;;;;;;;;;5040641;28;20481;-78
2023/08/04 11:04:00;;;;;;;3.23;1.60;;;;;;;;;;5041324;28;20453;-78
2023/08/04 11:06:28;;;;;;;3.00;1.63;;;;;;;;;;5040673;28;20866;-78
2023/08/04 11:08:54;;;;;;;2.10;1.30;;;;;;;;;;5023436;28;20486;-77
2023/08/04 11:11:22;;;;;;;3.80;1.80;;;;;;;;;;5040691;28;20567;-78
2023/08/04 11:13:48;;;;;;;3.50;1.50;;;;;;;;;;5040618;28;20488;-78
2023/08/04 11:16:16;;;;;;;2.20;1.60;;;;;;;;;;5040256;28;20929;-78
2023/08/04 11:18:43;;;;;;;5.23;2.00;;;;;;;;;;5040842;28;20892;-78
2023/08/04 11:21:09;;;;;;;3.30;1.90;;;;;;;;;;5039974;28;20571;-78
2023/08/04 11:23:37;;;;;;;3.57;1.60;;;;;;;;;;5040231;28;20481;-78
2023/08/04 11:26:03;;;;;;;2.37;1.53;;;;;;;;;;5040672;28;20458;-78
2023/08/04 11:28:32;;;;;;;2.10;1.33;;;;;;;;;;5035882;28;20517;-77
2023/08/04 11:31:05;;;;;;;2.23;1.20;;;;;;;;;;5040172;28;20488;-77
2023/08/04 11:33:31;;;;;;;5.33;1.67;;;;;;;;;;5040775;28;20529;-77
2023/08/04 11:35:57;;;;;;;4.67;1.47;;;;;;;;;;5035823;28;21073;-77
2023/08/04 11:38:24;;;;;;;2.43;1.20;;;;;;;;;;5040247;28;20473;-78
2023/08/04 11:40:58;;;;;;;1.27;1.07;;;;;;;;;;5040556;28;20454;-77
2023/08/04 11:43:25;;;;;;;2.90;1.17;;;;;;;;;;5039691;28;20457;-78
2023/08/04 11:45:52;;;;;;;1.60;1.43;;;;;;;;;;5039220;28;20529;-78
2023/08/04 11:48:19;;;;;;;2.27;1.23;;;;;;;;;;5040073;28;20454;-78
2023/08/04 11:50:47;;;;;;;3.20;1.20;;;;;;;;;;5040404;28;20457;-78
2023/08/04 11:53:14;;;;;;;1.50;1.40;;;;;;;;;;5040313;28;20597;-78
2023/08/04 11:55:52;;;;;;;1.97;1.23;;;;;;;;;;5040557;28;20890;-77
2023/08/04 11:58:29;;;;;;;1.90;1.30;;;;;;;;;;5040147;28;20481;-78
2023/08/04 12:00:56;;;;;;;2.80;1.70;;;;;;;;;;5039924;28;20510;-78
2023/08/04 12:03:22;;;;;;;2.70;1.77;;;;;;;;;;5040333;28;20450;-78
2023/08/04 12:05:48;;;;;;;3.93;1.80;;;;;;;;;;5040077;28;20493;-78
2023/08/04 12:08:15;;;;;;;1.80;1.30;;;;;;;;;;5040033;28;20488;-78
2023/08/04 12:10:42;;;;;;;1.40;1.30;;;;;;;;;;5038642;28;20453;-78
2023/08/04 12:13:08;;;;;;;2.00;1.33;;;;;;;;;;5038072;28;20539;-78
2023/08/04 12:15:49;;;;;;;1.40;1.27;;;;;;;;;;5040753;28;20522;-78
2023/08/04 12:18:24;;;;;;;2.60;1.40;;;;;;;;;;5039517;28;21273;-77
2023/08/04 12:20:51;;;;;;;1.33;0.93;;;;;;;;;;5041107;28;20465;-78
2023/08/04 12:23:17;;;;;;;2.27;1.10;;;;;;;;;;5039365;28;20500;-78
2023/08/04 12:25:44;;;;;;;1.73;1.00;;;;;;;;;;5040977;28;20524;-77
2023/08/04 12:28:11;;;;;;;4.53;1.30;;;;;;;;;;5040565;28;20481;-78
2023/08/04 12:30:37;;;;;;;2.50;1.00;;;;;;;;;;5038651;28;21107;-78
2023/08/04 12:33:04;;;;;;;1.53;0.90;;;;;;;;;;5040642;28;20488;-78
2023/08/04 12:35:32;;;;;;;2.50;1.10;;;;;;;;;;5040574;28;20458;-77
2023/08/04 12:37:59;;;;;;;1.57;0.80;;;;;;;;;;5038416;28;20493;-77
2023/08/04 12:40:26;;;;;;;3.10;1.10;;;;;;;;;;5041178;28;20496;-78
2023/08/04 12:42:52;;;;;;;2.03;1.27;;;;;;;;;;5041168;28;20477;-78
2023/08/04 12:45:19;;;;;;;1.20;1.10;;;;;;;;;;5041170;28;20478;-77
2023/08/04 12:47:45;;;;;;;1.40;1.00;;;;;;;;;;5040308;28;20485;-76
2023/08/04 12:50:11;;;;;;;1.80;1.13;;;;;;;;;;5040627;28;20489;-77
2023/08/04 12:52:39;;;;;;;1.00;0.90;;;;;;;;;;5040369;28;20458;-77
2023/08/04 12:55:06;;;;;;;3.10;1.10;;;;;;;;;;5025810;28;20442;-77
2023/08/04 12:57:32;;;;;;;1.30;1.00;;;;;;;;;;5041666;28;20580;-77
2023/08/04 12:59:59;;;;;;;2.50;1.00;;;;;;;;;;5043509;28;20454;-77
2023/08/04 13:02:26;;;;;;;1.50;1.00;;;;;;;;;;5043545;28;20485;-77
2023/08/04 13:04:52;;;;;;;1.63;1.30;;;;;;;;;;5043771;28;20457;-77
2023/08/04 13:07:18;;;;;;;3.10;1.20;;;;;;;;;;5043574;28;20473;-77
2023/08/04 13:09:46;;;;;;;1.20;1.03;;;;;;;;;;5043599;28;20486;-77
2023/08/04 13:12:13;;;;;;;1.93;1.33;;;;;;;;;;5043309;28;20532;-77
2023/08/04 13:14:39;;;;;;;1.60;1.10;;;;;;;;;;5041239;28;20462;-78
2023/08/04 13:17:06;;;;;;;1.63;1.00;;;;;;;;;;5033138;28;20551;-79
2023/08/04 13:19:32;;;;;;;2.23;1.37;;;;;;;;;;5038083;28;20474;-76
2023/08/04 13:21:59;;;;;;;1.57;1.17;;;;;;;;;;5042627;28;20454;-76
2023/08/04 13:24:25;;;;;;;1.63;1.20;;;;;;;;;;5039855;28;20443;-77
2023/08/04 13:26:53;;;;;;;2.33;1.30;;;;;;;;;;5043760;28;20477;-77
2023/08/04 13:29:19;;;;;;;1.90;0.80;;;;;;;;;;5043580;28;20457;-78
2023/08/04 13:31:46;;;;;;;2.27;1.13;;;;;;;;;;5043151;28;20500;-77
2023/08/04 13:34:12;;;;;;;4.03;1.47;;;;;;;;;;5043421;28;20497;-77
2023/08/04 13:36:38;;;;;;;2.57;1.37;;;;;;;;;;5036424;28;20525;-76
2023/08/04 13:39:05;;;;;;;2.37;1.00;;;;;;;;;;5037387;28;20494;-76
2023/08/04 13:41:31;;;;;;;1.67;0.80;;;;;;;;;;5042421;28;20484;-76
2023/08/04 13:43:59;;;;;;;2.23;1.00;;;;;;;;;;5041894;28;20520;-76
2023/08/04 13:46:25;;;;;;;1.30;1.10;;;;;;;;;;5038639;28;20909;-76
2023/08/04 13:48:52;;;;;;;1.50;0.87;;;;;;;;;;5038258;28;20534;-76
2023/08/04 13:51:18;;;;;;;2.83;1.13;;;;;;;;;;5042882;28;20866;-76
2023/08/04 13:53:44;;;;;;;2.40;1.17;;;;;;;;;;5042827;28;20532;-76
2023/08/04 13:56:11;;;;;;;1.77;1.00;;;;;;;;;;5041115;28;20481;-77
2023/08/04 13:58:37;;;;;;;1.77;1.40;;;;;;;;;;5042241;28;20565;-76
2023/08/04 14:01:05;;;;;;;2.70;1.30;;;;;;;;;;5042184;28;21033;-77
2023/08/04 14:03:31;;;;;;;2.40;1.40;;;;;;;;;;5040822;28;20605;-76
2023/08/04 14:05:58;;;;;;;1.40;1.20;;;;;;;;;;5041889;28;20485;-76
2023/08/04 14:08:24;;;;;;;1.73;1.40;;;;;;;;;;5040283;28;20462;-78
2023/08/04 14:10:51;;;;;;;3.23;1.40;;;;;;;;;;5032977;28;20462;-75
2023/08/04 14:13:17;;;;;;;1.47;1.10;;;;;;;;;;5037227;28;20496;-76
2023/08/04 14:15:43;;;;;;;1.50;1.20;;;;;;;;;;5033920;28;20524;-77
2023/08/04 14:18:11;;;;;;;2.67;1.40;;;;;;;;;;5040659;28;20584;-76
2023/08/04 14:20:38;;;;;;;1.10;0.90;;;;;;;;;;5039765;28;20533;-77
2023/08/04 14:23:04;;;;;;;2.97;1.40;;;;;;;;;;5031945;28;20546;-73
2023/08/04 14:25:30;;;;;;;2.00;1.40;;;;;;;;;;5039630;28;20460;-73
2023/08/04 14:27:57;;;;;;;3.70;1.10;;;;;;;;;;5032653;28;20493;-73
2023/08/04 14:30:23;;;;;;;1.50;1.10;;;;;;;;;;5041805;28;20462;-73
2023/08/04 14:32:49;;;;;;;1.60;1.20;;;;;;;;;;5042154;28;20484;-73
2023/08/04 14:35:17;;;;;;;1.87;1.23;;;;;;;;;;5042183;28;20572;-73
2023/08/04 14:37:44;;;;;;;2.80;1.20;;;;;;;;;;5041666;28;20485;-73